• Join FlightAware (Why Join?)
  • Login
  • US Flag 
01:01AM EDT


 

Airport Tracker/Info


-or-


 

Live Flight TrackerFlight Track Log ✈ FSR411 ✈ 18-Jun-2013 ✈ KDET - KCMI

Flight Track Log - Related Links

Times and Time Zones

All times are in EDT time to prevent confusion due to time zone crossing. See the FSR411 flight status page for this flight to view local times or setup timezone preferences in your user account.

Time Position Orientation Groundspeed Altitude Reporting Facility
EDT Latitude Longitude Course Direction KTS MPH feet Rate Location/Type
08:25AM 42.4461 -83.0564 317° Northwest 201 231 3,100  Level Cleveland Center
08:26AM 42.4906 -83.1147 316° Northwest 226 260 6,700 3,480 Climbing Cleveland Center
08:27AM 42.4786 -83.1900 258° West 267 307 10,200 3,120 Climbing Cleveland Center
08:27AM 42.4192 -83.2356 210° Southwest 307 353 12,300 1,620 Climbing Cleveland Center
08:28AM 42.3408 -83.2911 208° Southwest 401 461 13,100 1,320 Climbing Cleveland Center
08:29AM 42.2472 -83.3658 211° Southwest 401 461 15,000 2,400 Climbing Cleveland Center
08:30AM 42.1517 -83.4372 209° Southwest 401 461 18,000 2,460 Climbing Cleveland Center
08:31AM 42.0475 -83.5136 209° Southwest 421 484 20,000 1,980 Climbing Cleveland Center
08:32AM 41.9475 -83.5900 210° Southwest 421 484 22,000 1,980 Climbing Cleveland Center
08:33AM 41.8475 -83.6661 210° Southwest 421 484 24,000 1,500 Climbing Cleveland Center
08:34AM 41.7433 -83.7447 209° Southwest 426 490 25,000 480 Climbing Cleveland Center
08:35AM 41.6411 -83.8231 210° Southwest 426 490 25,000 300 Level Cleveland Center
08:36AM 41.5364 -83.9067 211° Southwest 431 496 25,600 840 Climbing Cleveland Center
08:38AM 41.4028 -84.0117 211° Southwest 430 495 27,000 960 Climbing Chicago Center
08:39AM 41.3000 -84.0914 210° Southwest 427 491 28,000 480 Climbing Chicago Center
08:40AM 41.2294 -84.2144 233° Southwest 428 493 28,000  Level Chicago Center
08:41AM 41.1897 -84.3656 251° West 434 499 28,000  Level Chicago Center
08:42AM 41.1514 -84.5156 251° West 430 495 28,000  Level Chicago Center
08:43AM 41.1131 -84.6664 251° West 431 496 28,000  Level Chicago Center
08:44AM 41.0747 -84.8153 251° West 429 494 28,000  Level Chicago Center
08:45AM 41.0283 -84.9958 251° West 429 494 28,000  Level Chicago Center
08:46AM 40.9894 -85.1461 251° West 431 496 28,000  Level Chicago Center
08:47AM 40.9478 -85.2964 250° West 432 497 28,000  Level Chicago Center
08:48AM 40.9042 -85.4456 249° West 434 499 28,000  Level Chicago Center
08:49AM 40.8597 -85.5942 248° West 435 501 28,000  Level Chicago Center
08:50AM 40.8164 -85.7447 249° West 436 502 28,000  Level Chicago Center
08:51AM 40.7731 -85.8942 249° West 436 502 28,000 -120 Level Chicago Center
08:52AM 40.7206 -86.0717 249° West 435 501 27,800 -780 Descending Chicago Center
08:53AM 40.6825 -86.2017 249° West 431 496 26,500 -1,500 Descending Chicago Center
08:54AM 40.6306 -86.3733 248° West 425 489 24,700 -1,260 Descending Chicago Center
08:55AM 40.5864 -86.5208 249° West 434 499 24,000 -360 Descending Chicago Center
08:56AM 40.5428 -86.6675 249° West 434 499 24,000 -120 Level Chicago Center
08:57AM 40.4972 -86.8142 248° West 436 502 23,800 -900 Descending Chicago Center
08:59AM 40.4536 -86.9589 248° West 430 495 22,200 -1,680 Descending Chicago Center
09:00AM 40.4022 -87.1269 248° West 418 481 20,300 -1,740 Descending Chicago Center
09:01AM 40.3589 -87.2636 247° West 411 473 18,700 -1,560 Descending Chicago Center
09:02AM 40.3175 -87.4003 248° West 405 466 17,100 -1,620 Descending Chicago Center
09:03AM 40.2731 -87.5422 248° West 399 459 15,400 -1,560 Descending Chicago Center
09:04AM 40.2331 -87.6717 248° West 389 448 13,900 -1,560 Descending Chicago Center
09:05AM 40.1933 -87.7956 247° West 373 429 12,200 -1,800 Descending Chicago Center
09:06AM 40.1508 -87.9281 247° West 354 407 10,200 -1,740 Descending Chicago Center
09:07AM 40.1075 -88.0200 238° Southwest 314 361 8,700 -1,980 Descending Chicago Center
09:08AM 40.0592 -88.0922 229° Southwest 280 322 6,200 -2,460 Descending Chicago Center
09:09AM 39.9947 -88.1475 213° Southwest 257 296 3,700 -2,460 Descending Chicago Center
09:11AM 40.0333 -88.2667 252° West  Level FlightAware Approximate
09:18AM 40.0388 -88.2778 252° West  Level Estimated
09:19AM 40.0388 -88.2778 252° West  Level Estimated
09:20AM 40.0388 -88.2778 252° West  Level Estimated